createdAt,value
2018-05-08T00:02:28.030Z,97095.66
2018-05-08T00:04:57.533Z,97096.22
2018-05-08T00:07:27.907Z,97098.78
2018-05-08T00:09:57.620Z,97097.17
2018-05-08T00:12:27.339Z,97087.56
2018-05-08T00:14:57.617Z,97090.14
2018-05-08T00:17:27.261Z,97091.49
2018-05-08T00:19:58.309Z,97092.03
2018-05-08T00:22:27.984Z,97085.02
2018-05-08T00:24:57.971Z,97082.73
2018-05-08T00:27:28.396Z,97081.09
2018-05-08T00:29:57.957Z,97076.92
2018-05-08T00:32:28.225Z,97078.14
2018-05-08T00:34:57.823Z,97070.56
2018-05-08T00:37:28.388Z,97065.55
2018-05-08T00:39:58.242Z,97056.09
2018-05-08T00:42:27.949Z,97058.52
2018-05-08T00:44:57.523Z,97058.55
2018-05-08T00:47:29.085Z,97061.92
2018-05-08T00:49:58.597Z,97057.19
2018-05-08T00:52:28.111Z,97058.11
2018-05-08T00:55:06.854Z,97056.89
2018-05-08T00:57:36.580Z,97056.23
2018-05-08T01:00:06.170Z,97054.19
2018-05-08T01:02:35.916Z,97051.22
2018-05-08T01:05:06.452Z,97039.73
2018-05-08T01:07:36.278Z,97030.28
2018-05-08T01:10:05.876Z,97031.38
2018-05-08T01:12:36.031Z,97040.42
2018-05-08T01:15:05.640Z,97038.25
2018-05-08T01:17:35.530Z,97032.86
2018-05-08T01:20:05.897Z,97028.40
2018-05-08T01:22:36.424Z,97018.39
2018-05-08T01:25:06.238Z,97009.75
2018-05-08T01:27:35.781Z,97012.83
2018-05-08T01:30:05.447Z,97015.41
2018-05-08T01:32:39.744Z,97018.09
2018-05-08T01:35:09.697Z,97013.90
2018-05-08T01:37:39.257Z,97014.43
2018-05-08T01:40:09.453Z,97015.13
2018-05-08T01:42:39.141Z,97010.67
2018-05-08T01:45:09.260Z,97007.02
2018-05-08T01:47:39.070Z,97002.84
2018-05-08T01:50:09.089Z,97002.58
2018-05-08T01:52:38.754Z,97001.09
2018-05-08T01:55:10.085Z,96997.70
2018-05-08T01:57:40.373Z,96990.56
2018-05-08T02:00:11.802Z,96993.67
2018-05-08T02:02:42.579Z,96987.58
2018-05-08T02:05:12.367Z,96988.50
2018-05-08T02:07:44.394Z,96988.77
2018-05-08T02:10:14.247Z,96987.02
2018-05-08T02:12:46.419Z,96993.91
2018-05-08T02:15:19.487Z,96993.91
2018-05-08T02:17:49.320Z,96995.95
2018-05-08T02:20:20.942Z,96995.41
2018-05-08T02:22:50.586Z,96996.23
2018-05-08T02:25:20.072Z,96992.86
2018-05-08T02:27:49.553Z,96992.59
2018-05-08T02:30:20.702Z,96994.61
2018-05-08T02:32:51.984Z,96994.88
2018-05-08T02:35:22.303Z,96995.56
2018-05-08T02:37:51.784Z,96994.77
2018-05-08T02:40:21.528Z,96993.55
2018-05-08T02:42:51.037Z,96989.32
2018-05-08T02:45:20.543Z,96987.30
2018-05-08T02:47:52.538Z,96989.28
2018-05-08T02:50:22.118Z,96986.30
2018-05-08T02:52:52.890Z,96988.05
2018-05-08T02:55:22.757Z,96989.41
2018-05-08T02:57:53.164Z,96982.20
2018-05-08T03:00:22.811Z,96983.44
2018-05-08T03:02:53.849Z,96980.18
2018-05-08T03:05:23.572Z,96976.38
2018-05-08T03:07:54.260Z,96983.02
2018-05-08T03:10:23.954Z,96971.27
2018-05-08T03:12:53.806Z,96975.61
2018-05-08T03:15:23.463Z,96971.00
2018-05-08T03:17:58.209Z,96972.22
2018-05-08T03:20:27.762Z,96967.98
2018-05-08T03:22:57.446Z,96971.50
2018-05-08T03:25:26.950Z,96963.20
2018-05-08T03:27:56.523Z,96961.19
2018-05-08T03:30:26.751Z,96954.97
2018-05-08T03:32:56.400Z,96953.09
2018-05-08T03:35:26.677Z,96956.48
2018-05-08T03:37:57.001Z,96957.29
2018-05-08T03:40:27.357Z,96961.91
2018-05-08T03:42:56.974Z,96961.66
2018-05-08T03:45:26.482Z,96960.72
2018-05-08T03:47:56.010Z,96966.12
2018-05-08T03:50:25.563Z,96968.02
2018-05-08T03:52:55.320Z,96970.56
2018-05-08T03:55:24.961Z,96962.59
2018-05-08T03:57:54.629Z,96965.97
2018-05-08T04:00:41.940Z,96965.00
2018-05-08T04:03:29.326Z,96957.04
2018-05-08T04:19:33.021Z,96965.27
2018-05-08T04:22:03.515Z,96963.09
2018-05-08T04:24:33.385Z,96964.14
2018-05-08T04:27:03.696Z,96959.52
2018-05-08T04:29:34.496Z,96955.42
2018-05-08T04:32:04.065Z,96955.80
2018-05-08T04:34:33.704Z,96953.32
2018-05-08T04:37:03.718Z,96954.39
2018-05-08T04:39:34.566Z,96958.99
2018-05-08T04:42:04.128Z,96960.03
2018-05-08T04:44:33.590Z,96966.96
2018-05-08T04:47:03.933Z,96962.77
2018-05-08T04:49:34.653Z,96964.55
2018-05-08T04:52:04.268Z,96956.59
2018-05-08T04:54:33.762Z,96961.98
2018-05-08T04:57:04.065Z,96958.84
2018-05-08T04:59:33.601Z,96950.89
2018-05-08T05:02:03.146Z,96948.52
2018-05-08T05:04:32.657Z,96949.95
2018-05-08T05:07:02.243Z,96951.77
2018-05-08T05:09:31.935Z,96956.43
2018-05-08T05:12:03.086Z,96952.66
2018-05-08T05:14:32.885Z,96957.97
2018-05-08T05:17:03.174Z,96956.92
2018-05-08T05:19:32.856Z,96954.09
2018-05-08T05:22:03.300Z,96957.20
2018-05-08T05:24:33.034Z,96960.52
2018-05-08T05:27:04.363Z,96958.16
2018-05-08T05:29:33.973Z,96959.77
2018-05-08T05:32:04.894Z,96956.88
2018-05-08T05:34:36.877Z,96945.88
2018-05-08T05:37:07.554Z,96947.88
2018-05-08T05:39:37.243Z,96950.34
2018-05-08T05:42:07.032Z,96945.46
2018-05-08T05:44:37.657Z,96948.20
2018-05-08T05:47:07.663Z,96951.91
2018-05-08T05:49:37.303Z,96947.90
2018-05-08T05:52:07.737Z,96942.80
2018-05-08T05:54:37.701Z,96943.92
2018-05-08T05:57:07.623Z,96947.41
2018-05-08T05:59:37.949Z,96942.48
2018-05-08T06:02:07.968Z,96945.45
2018-05-08T06:04:38.220Z,96935.67
2018-05-08T06:07:08.150Z,96935.81
2018-05-08T06:09:38.479Z,96936.56
2018-05-08T06:24:41.233Z,96933.20
2018-05-08T06:27:12.133Z,96928.77
2018-05-08T06:29:42.619Z,96932.42
2018-05-08T06:32:12.444Z,96934.47
2018-05-08T06:34:41.961Z,96927.52
2018-05-08T06:37:12.200Z,96931.06
2018-05-08T06:39:43.329Z,96934.98
2018-05-08T06:42:13.674Z,96932.90
2018-05-08T06:44:44.298Z,96931.67
2018-05-08T06:47:14.795Z,96924.59
2018-05-08T06:49:44.979Z,96932.00
2018-05-08T06:52:16.036Z,96939.56
2018-05-08T06:54:46.908Z,96934.42
2018-05-08T06:57:16.510Z,96926.23
2018-05-08T06:59:46.640Z,96929.21
2018-05-08T07:02:17.664Z,96932.44
2018-05-08T07:04:47.260Z,96933.93
2018-05-08T07:07:17.070Z,96931.25
2018-05-08T07:09:46.771Z,96929.08
2018-05-08T07:12:16.598Z,96929.94
2018-05-08T07:14:47.209Z,96926.09
2018-05-08T07:17:18.941Z,96918.38
2018-05-08T07:19:48.609Z,96911.47
2018-05-08T07:22:18.364Z,96915.38
2018-05-08T07:24:48.917Z,96917.02
2018-05-08T07:27:19.341Z,96911.45
2018-05-08T07:29:48.848Z,96906.90
2018-05-08T07:32:18.390Z,96905.93
2018-05-08T07:34:47.990Z,96909.09
2018-05-08T07:37:17.742Z,96904.69
2018-05-08T07:39:48.242Z,96899.78
2018-05-08T07:42:17.953Z,96903.32
2018-05-08T07:44:47.618Z,96912.03
2018-05-08T07:47:17.251Z,96913.23
2018-05-08T07:49:46.782Z,96905.05
2018-05-08T07:52:16.893Z,96891.97
2018-05-08T07:54:46.515Z,96896.51
2018-05-08T07:57:16.132Z,96894.78
2018-05-08T07:59:46.503Z,96906.06
2018-05-08T08:02:16.080Z,96905.79
2018-05-08T08:04:46.552Z,96903.02
2018-05-08T08:07:17.292Z,96906.45
2018-05-08T08:09:47.091Z,96908.86
2018-05-08T08:12:16.807Z,96903.37
2018-05-08T08:14:47.069Z,96910.66
2018-05-08T08:17:16.725Z,96906.82
2018-05-08T08:19:47.045Z,96907.21
2018-05-08T08:22:17.522Z,96903.62
2018-05-08T08:24:47.210Z,96899.78
2018-05-08T08:27:16.687Z,96901.13
2018-05-08T08:29:47.051Z,96895.20
2018-05-08T08:32:17.470Z,96897.27
2018-05-08T08:34:47.076Z,96895.75
2018-05-08T08:37:16.562Z,96887.45
2018-05-08T08:39:47.513Z,96896.91
2018-05-08T08:42:17.000Z,96893.93
2018-05-08T08:44:47.369Z,96896.42
2018-05-08T08:47:16.872Z,96891.15
2018-05-08T08:49:47.285Z,96890.75
2018-05-08T08:52:17.109Z,96895.72
2018-05-08T08:54:46.582Z,96884.19
2018-05-08T08:57:16.090Z,96878.48
2018-05-08T08:59:46.478Z,96881.13
2018-05-08T09:02:15.969Z,96876.58
2018-05-08T09:04:48.190Z,96873.08
2018-05-08T09:07:18.623Z,96882.28
2018-05-08T09:09:48.152Z,96879.66
2018-05-08T09:12:17.953Z,96873.48
2018-05-08T09:14:47.692Z,96868.83
2018-05-08T09:17:18.338Z,96861.64
2018-05-08T09:19:47.984Z,96860.69
2018-05-08T09:22:18.502Z,96861.33
2018-05-08T09:24:48.773Z,96861.72
2018-05-08T09:27:18.365Z,96864.67
2018-05-08T09:29:47.893Z,96860.53
2018-05-08T09:32:17.582Z,96862.96
2018-05-08T09:34:47.238Z,96856.07
2018-05-08T09:37:16.795Z,96856.27
2018-05-08T09:39:47.106Z,96856.20
2018-05-08T09:42:16.645Z,96851.07
2018-05-08T09:44:46.113Z,96842.42
2018-05-08T09:47:16.560Z,96850.77
2018-05-08T09:49:46.365Z,96846.75
2018-05-08T09:52:16.727Z,96841.32
2018-05-08T09:54:46.446Z,96830.56
2018-05-08T09:57:15.946Z,96825.58
2018-05-08T09:59:45.498Z,96824.58
2018-05-08T10:02:15.874Z,96827.98
2018-05-08T10:04:45.428Z,96825.34
2018-05-08T10:07:14.990Z,96818.34
2018-05-08T10:09:44.569Z,96818.15
2018-05-08T10:12:14.133Z,96810.49
2018-05-08T10:14:43.813Z,96801.69
2018-05-08T10:17:14.576Z,96806.25
2018-05-08T10:19:44.062Z,96799.27
2018-05-08T10:22:13.544Z,96799.13
2018-05-08T10:24:43.047Z,96797.52
2018-05-08T10:27:12.494Z,96792.13
2018-05-08T10:29:43.099Z,96787.73
2018-05-08T10:32:12.923Z,96793.86
2018-05-08T10:34:42.437Z,96779.70
2018-05-08T10:37:12.142Z,96772.92
2018-05-08T10:39:44.001Z,96770.30
2018-05-08T10:42:13.520Z,96761.80
2018-05-08T10:44:44.593Z,96760.16
2018-05-08T10:47:14.073Z,96750.58
2018-05-08T10:49:43.784Z,96753.76
2018-05-08T10:52:13.317Z,96754.45
2018-05-08T10:54:42.774Z,96739.77
2018-05-08T10:57:13.473Z,96740.38
2018-05-08T10:59:42.949Z,96737.73
2018-05-08T11:02:13.442Z,96735.81
2018-05-08T11:04:43.305Z,96728.95
2018-05-08T11:07:13.599Z,96722.56
2018-05-08T11:09:43.074Z,96723.39
2018-05-08T11:12:26.394Z,96717.98
2018-05-08T11:14:57.255Z,96712.40
2018-05-08T11:17:27.888Z,96705.62
2018-05-08T11:20:05.080Z,96702.98
2018-05-08T11:22:34.645Z,96702.04
2018-05-08T11:25:04.194Z,96700.58
2018-05-08T11:27:33.860Z,96694.38
2018-05-08T11:30:04.308Z,96694.45
2018-05-08T11:32:33.806Z,96693.22
2018-05-08T11:35:03.321Z,96686.58
2018-05-08T11:37:34.275Z,96680.55
2018-05-08T11:40:03.802Z,96674.06
2018-05-08T11:42:34.158Z,96669.20
2018-05-08T11:45:04.509Z,96666.14
2018-05-08T11:47:34.048Z,96660.88
2018-05-08T11:50:05.487Z,96661.17
2018-05-08T11:52:35.113Z,96650.67
2018-05-08T11:55:04.793Z,96640.81
2018-05-08T11:57:34.432Z,96641.25
2018-05-08T12:00:04.237Z,96642.55
2018-05-08T12:02:33.868Z,96635.17
2018-05-08T12:05:03.322Z,96634.16
2018-05-08T12:07:32.784Z,96623.56
2018-05-08T12:10:13.134Z,96618.78
2018-05-08T12:13:07.894Z,96609.97
2018-05-08T12:15:56.177Z,96602.28
2018-05-08T12:18:28.411Z,96607.56
2018-05-08T12:21:11.707Z,96601.14
2018-05-08T12:23:42.196Z,96591.06
2018-05-08T12:26:11.879Z,96588.33
2018-05-08T12:28:41.608Z,96584.13
2018-05-08T12:31:11.060Z,96577.34
2018-05-08T12:33:41.413Z,96577.38
2018-05-08T12:36:11.128Z,96567.92
2018-05-08T12:38:40.620Z,96568.74
2018-05-08T12:41:10.173Z,96571.59
2018-05-08T12:43:40.491Z,96563.98
2018-05-08T12:46:09.947Z,96562.20
2018-05-08T12:48:40.505Z,96570.70
2018-05-08T12:51:10.240Z,96574.36
2018-05-08T12:53:39.715Z,96573.67
2018-05-08T12:56:10.481Z,96567.35
2018-05-08T12:58:40.081Z,96570.04
2018-05-08T13:01:09.596Z,96561.95
2018-05-08T13:03:39.066Z,96550.20
2018-05-08T13:06:08.997Z,96543.08
2018-05-08T13:08:38.522Z,96542.64
2018-05-08T13:11:08.285Z,96541.64
2018-05-08T13:13:38.716Z,96543.72
2018-05-08T13:25:29.147Z,96548.23
2018-05-08T13:27:58.710Z,96554.70
2018-05-08T13:30:28.537Z,96540.40
2018-05-08T13:32:58.138Z,96543.66
2018-05-08T13:35:27.855Z,96544.28
2018-05-08T13:37:57.387Z,96546.25
2018-05-08T13:40:27.585Z,96543.94
2018-05-08T13:42:57.626Z,96543.20
2018-05-08T13:45:28.003Z,96570.69
2018-05-08T13:47:58.877Z,96576.35
2018-05-08T13:50:29.267Z,96571.19
2018-05-08T13:53:00.095Z,96565.70
2018-05-08T13:55:29.727Z,96555.98
2018-05-08T13:57:59.607Z,96554.92
2018-05-08T14:00:29.110Z,96558.23
2018-05-08T14:02:59.676Z,96565.81
2018-05-08T14:05:29.390Z,96576.66
2018-05-08T14:07:59.062Z,96580.16
2018-05-08T14:10:29.528Z,96594.94
2018-05-08T14:12:59.167Z,96605.89
2018-05-08T14:15:29.868Z,96615.80
2018-05-08T14:17:59.384Z,96615.29
2018-05-08T14:20:29.068Z,96620.17
2018-05-08T14:23:27.828Z,96612.59
2018-05-08T14:26:29.622Z,96612.44
2018-05-08T14:29:10.370Z,96599.05
2018-05-08T14:31:40.771Z,96589.94
2018-05-08T14:34:10.912Z,96583.24
2018-05-08T14:36:41.309Z,96582.81
2018-05-08T14:39:11.746Z,96589.02
2018-05-08T14:41:41.253Z,96589.14
2018-05-08T14:44:11.028Z,96588.95
2018-05-08T14:46:41.670Z,96587.94
2018-05-08T14:49:13.982Z,96599.30
2018-05-08T14:51:43.957Z,96630.09
2018-05-08T14:54:16.198Z,96652.60
2018-05-08T14:56:47.304Z,96672.88
2018-05-08T14:59:16.884Z,96687.63
2018-05-08T15:01:46.506Z,96695.39
2018-05-08T15:04:16.121Z,96679.33
2018-05-08T15:06:45.577Z,96681.93
2018-05-08T15:09:15.205Z,96682.12
2018-05-08T15:11:44.897Z,96686.44
2018-05-08T15:14:14.417Z,96668.27
2018-05-08T15:16:53.163Z,96673.69
2018-05-08T15:19:23.048Z,96684.14
2018-05-08T15:21:53.674Z,96682.97
2018-05-08T15:24:23.337Z,96668.92
2018-05-08T15:26:53.737Z,96661.04
2018-05-08T15:29:23.248Z,96661.23
2018-05-08T15:32:02.141Z,96656.06
2018-05-08T15:34:31.770Z,96656.28
2018-05-08T15:37:01.588Z,96651.77
2018-05-08T15:39:31.699Z,96630.13
2018-05-08T15:42:01.796Z,96616.96
2018-05-08T15:44:31.321Z,96606.81
2018-05-08T15:47:00.939Z,96614.25
2018-05-08T15:49:31.113Z,96619.70
2018-05-08T15:52:00.978Z,96643.25
2018-05-08T15:54:30.469Z,96645.55
2018-05-08T15:57:00.725Z,96651.29
2018-05-08T15:59:30.714Z,96670.70
2018-05-08T16:02:00.406Z,96707.30
2018-05-08T16:04:30.232Z,96731.52
2018-05-08T16:06:59.861Z,96774.33
2018-05-08T16:09:29.389Z,96789.41
2018-05-08T16:11:59.025Z,96805.26
2018-05-08T16:14:28.789Z,96804.26
2018-05-08T16:16:58.334Z,96809.09
2018-05-08T16:19:46.879Z,96810.48
2018-05-08T16:22:19.696Z,96807.58
2018-05-08T16:24:50.372Z,96803.88
2018-05-08T16:27:21.059Z,96804.86
2018-05-08T16:29:51.494Z,96811.69
2018-05-08T16:32:23.366Z,96803.67
2018-05-08T16:34:53.752Z,96790.17
2018-05-08T16:37:25.015Z,96792.13
2018-05-08T16:39:56.458Z,96790.53
2018-05-08T16:42:28.286Z,96787.64
2018-05-08T16:45:00.699Z,96786.88
2018-05-08T16:47:30.603Z,96782.97
2018-05-08T16:50:01.440Z,96782.91
2018-05-08T16:52:31.877Z,96781.58
2018-05-08T16:55:09.727Z,96775.63
2018-05-08T16:57:39.549Z,96792.41
2018-05-08T17:00:09.181Z,96787.64
2018-05-08T17:02:38.968Z,96781.51
2018-05-08T17:05:08.652Z,96781.19
2018-05-08T17:07:39.152Z,96780.42
2018-05-08T17:10:08.797Z,96777.89
2018-05-08T17:12:38.337Z,96777.06
2018-05-08T17:15:08.891Z,96777.80
2018-05-08T17:17:39.368Z,96787.27
2018-05-08T17:20:09.072Z,96784.77
2018-05-08T17:22:39.610Z,96778.48
2018-05-08T17:25:09.169Z,96783.28
2018-05-08T17:27:40.306Z,96784.47
2018-05-08T17:30:18.835Z,96793.00
2018-05-08T17:32:48.753Z,96796.81
2018-05-08T17:35:20.524Z,96797.40
2018-05-08T17:37:50.195Z,96791.95
2018-05-08T17:40:21.501Z,96794.00
2018-05-08T17:42:51.124Z,96793.55
2018-05-08T17:45:21.067Z,96790.96
2018-05-08T17:47:51.666Z,96802.40
2018-05-08T17:50:25.044Z,96800.55
2018-05-08T17:52:54.774Z,96803.96
2018-05-08T17:55:24.409Z,96803.43
2018-05-08T17:57:54.898Z,96793.55
2018-05-08T18:00:24.507Z,96796.70
2018-05-08T18:02:54.041Z,96792.68
2018-05-08T18:05:23.748Z,96796.30
2018-05-08T18:07:53.758Z,96789.73
2018-05-08T18:10:27.615Z,96788.96
2018-05-08T18:13:09.209Z,96786.73
2018-05-08T18:15:43.358Z,96789.74
2018-05-08T18:18:13.046Z,96787.55
2018-05-08T18:20:43.805Z,96784.34
2018-05-08T18:23:59.998Z,96777.71
2018-05-08T18:26:40.043Z,96755.58
2018-05-08T18:29:09.772Z,96749.62
2018-05-08T18:31:45.551Z,96767.87
2018-05-08T18:34:16.739Z,96750.05
2018-05-08T18:36:47.130Z,96756.56
2018-05-08T18:39:19.368Z,96756.23
2018-05-08T18:41:49.860Z,96741.89
2018-05-08T18:44:20.410Z,96740.95
2018-05-08T18:46:57.293Z,96734.31
2018-05-08T18:49:32.804Z,96734.19
2018-05-08T18:52:05.599Z,96737.95
2018-05-08T18:54:40.440Z,96735.01
2018-05-08T18:57:19.735Z,96730.78
2018-05-08T18:59:59.080Z,96718.04
2018-05-08T19:02:37.042Z,96705.32
2018-05-08T19:05:12.439Z,96703.40
2018-05-08T19:07:54.350Z,96696.68
2018-05-08T19:10:30.972Z,96692.45
2018-05-08T19:13:13.626Z,96691.63
2018-05-08T19:16:08.149Z,96691.80
2018-05-08T19:18:51.708Z,96690.03
2018-05-08T19:21:22.414Z,96690.85
2018-05-08T19:24:05.071Z,96696.96
2018-05-08T19:26:46.141Z,96697.87
2018-05-08T19:29:38.337Z,96702.05
2018-05-08T19:32:10.362Z,96702.16
2018-05-08T19:37:54.125Z,96702.34
2018-05-08T19:40:24.833Z,96703.39
2018-05-08T19:42:54.803Z,96706.80
2018-05-08T19:45:25.315Z,96709.30
2018-05-08T19:47:57.371Z,96711.44
2018-05-08T19:50:28.708Z,96703.56
2018-05-08T19:53:05.080Z,96704.75
2018-05-08T19:55:38.864Z,96711.52
2018-05-08T19:58:13.165Z,96709.26
2018-05-08T20:00:51.967Z,96715.13
2018-05-08T20:03:22.250Z,96712.63
2018-05-08T20:06:04.150Z,96709.39
2018-05-08T20:08:35.131Z,96707.02
2018-05-08T20:11:05.559Z,96701.11
2018-05-08T20:13:38.943Z,96701.56
2018-05-08T20:16:09.406Z,96701.69
2018-05-08T20:18:54.907Z,96701.27
2018-05-08T20:21:30.877Z,96697.71
2018-05-08T20:24:04.081Z,96707.67
2018-05-08T20:26:34.911Z,96706.93
2018-05-08T20:29:05.546Z,96701.85
2018-05-08T20:31:36.100Z,96699.71
2018-05-08T20:34:06.965Z,96702.42
2018-05-08T20:36:37.899Z,96699.06
2018-05-08T20:39:10.590Z,96700.09
2018-05-08T20:41:41.038Z,96700.25
2018-05-08T20:44:11.343Z,96693.29
2018-05-08T20:46:41.982Z,96688.45
2018-05-08T20:49:13.851Z,96687.25
2018-05-08T20:51:44.265Z,96689.67
2018-05-08T20:54:14.604Z,96688.00
2018-05-08T20:56:46.108Z,96685.87
2018-05-08T20:59:17.228Z,96688.06
2018-05-08T21:01:49.511Z,96688.69
2018-05-08T21:04:20.871Z,96695.91
2018-05-08T21:06:53.426Z,96696.41
2018-05-08T21:09:27.036Z,96696.70
2018-05-08T21:11:56.931Z,96699.88
2018-05-08T21:14:27.674Z,96700.82
2018-05-08T21:16:59.276Z,96707.08
2018-05-08T21:19:29.226Z,96712.38
2018-05-08T21:21:59.853Z,96718.11
2018-05-08T21:24:31.604Z,96723.53
2018-05-08T21:27:02.255Z,96714.77
2018-05-08T21:29:38.534Z,96724.86
2018-05-08T21:32:11.843Z,96722.83
2018-05-08T21:34:45.819Z,96722.39
2018-05-08T21:37:18.179Z,96734.38
2018-05-08T21:39:49.033Z,96728.20
2018-05-08T21:42:21.352Z,96739.94
2018-05-08T21:44:51.541Z,96739.75
2018-05-08T21:47:22.684Z,96742.08
2018-05-08T21:49:53.093Z,96737.77
2018-05-08T21:52:23.872Z,96742.68
2018-05-08T21:54:54.273Z,96741.77
2018-05-08T21:57:53.764Z,96740.43
2018-05-08T22:00:26.193Z,96740.15
2018-05-08T22:02:58.684Z,96740.16
2018-05-08T22:05:28.841Z,96735.66
2018-05-08T22:07:59.599Z,96734.45
2018-05-08T22:10:30.464Z,96737.97
2018-05-08T22:13:00.501Z,96735.64
2018-05-08T22:15:30.549Z,96738.58
2018-05-08T22:18:00.633Z,96741.44
2018-05-08T22:20:31.154Z,96739.55
2018-05-08T22:23:00.955Z,96734.70
2018-05-08T22:25:30.607Z,96732.41
2018-05-08T22:28:00.308Z,96730.66
2018-05-08T22:30:31.268Z,96732.70
2018-05-08T22:33:02.465Z,96736.34
2018-05-08T22:35:32.168Z,96731.95
2018-05-08T22:38:01.895Z,96724.71
2018-05-08T22:40:31.524Z,96729.45
2018-05-08T22:43:01.104Z,96723.13
2018-05-08T22:45:31.693Z,96722.86
2018-05-08T22:48:02.043Z,96722.87
2018-05-08T22:50:37.104Z,96724.13
2018-05-08T22:53:06.715Z,96725.48
2018-05-08T22:55:36.457Z,96723.47
2018-05-08T22:58:06.076Z,96714.95
2018-05-08T23:00:35.647Z,96713.07
2018-05-08T23:03:07.176Z,96709.42
2018-05-08T23:05:36.806Z,96714.17
2018-05-08T23:08:06.546Z,96708.78
2018-05-08T23:10:36.096Z,96705.94
2018-05-08T23:13:05.678Z,96706.91
2018-05-08T23:15:35.224Z,96709.09
2018-05-08T23:18:05.863Z,96696.83
2018-05-08T23:20:37.274Z,96698.70
2018-05-08T23:23:08.254Z,96693.86
2018-05-08T23:25:38.505Z,96690.61
2018-05-08T23:28:07.990Z,96690.34
2018-05-08T23:30:37.735Z,96689.91
2018-05-08T23:33:07.456Z,96686.80
2018-05-08T23:35:37.150Z,96688.55
2018-05-08T23:38:06.852Z,96686.66
2018-05-08T23:40:36.480Z,96682.58
2018-05-08T23:43:07.607Z,96681.61
2018-05-08T23:45:37.319Z,96678.25
2018-05-08T23:48:06.841Z,96673.25
2018-05-08T23:50:36.341Z,96669.21
2018-05-08T23:53:07.309Z,96662.05
2018-05-08T23:55:36.893Z,96660.19
2018-05-08T23:58:07.395Z,96659.66
